createdAt,value
2023-01-17T00:01:13.704Z,13.98
2023-01-17T00:04:04.079Z,13.50
2023-01-17T00:06:53.314Z,17.70
2023-01-17T00:09:43.349Z,15.93
2023-01-17T00:12:15.439Z,16.10
2023-01-17T00:14:46.232Z,16.88
2023-01-17T00:17:17.099Z,13.55
2023-01-17T00:20:06.287Z,17.80
2023-01-17T00:22:55.766Z,18.45
2023-01-17T00:25:47.544Z,16.65
2023-01-17T00:31:23.411Z,15.50
2023-01-17T00:33:53.786Z,15.55
2023-01-17T00:36:24.674Z,16.95
2023-01-17T00:38:55.515Z,16.63
2023-01-17T00:41:26.097Z,14.82
2023-01-17T00:47:17.344Z,15.85
2023-01-17T00:50:06.192Z,18.98
2023-01-17T00:52:55.185Z,13.82
2023-01-17T00:55:45.108Z,19.10
2023-01-17T00:58:34.894Z,19.77
2023-01-17T01:01:27.466Z,16.92
2023-01-17T01:04:16.567Z,14.93
2023-01-17T01:07:05.686Z,18.00
2023-01-17T01:12:56.005Z,17.40
2023-01-17T01:15:47.540Z,20.65
2023-01-17T01:18:36.700Z,20.88
2023-01-17T01:21:25.623Z,20.52
2023-01-17T01:24:15.806Z,21.30
2023-01-17T01:27:05.015Z,25.20
2023-01-17T01:29:54.091Z,17.75
2023-01-17T01:32:43.190Z,19.13
2023-01-17T01:35:15.399Z,20.02
2023-01-17T01:38:11.933Z,21.05
2023-01-17T01:43:56.923Z,22.25
2023-01-17T01:46:43.159Z,20.60
2023-01-17T01:49:22.081Z,24.25
2023-01-17T01:52:00.706Z,21.15
2023-01-17T01:54:59.438Z,22.40
2023-01-17T01:57:36.518Z,20.65
2023-01-17T02:00:28.424Z,22.13
2023-01-17T02:03:02.648Z,21.60
2023-01-17T02:05:36.826Z,16.55
2023-01-17T02:08:16.994Z,20.33
2023-01-17T02:10:48.006Z,19.17
2023-01-17T02:13:22.161Z,20.17
2023-01-17T02:16:11.027Z,19.05
2023-01-17T02:18:48.262Z,21.42
2023-01-17T02:21:57.832Z,22.73
2023-01-17T02:24:45.241Z,23.80
2023-01-17T02:27:32.481Z,21.58
2023-01-17T02:30:21.669Z,20.95
2023-01-17T02:33:00.032Z,23.48
2023-01-17T02:35:53.965Z,20.02
2023-01-17T02:38:50.145Z,20.77
2023-01-17T02:41:30.071Z,19.58
2023-01-17T02:44:05.702Z,22.02
2023-01-17T02:46:59.681Z,20.80
2023-01-17T02:49:34.831Z,19.88
2023-01-17T02:52:40.876Z,16.55
2023-01-17T02:59:14.490Z,19.00
2023-01-17T03:02:02.210Z,21.15
2023-01-17T03:04:46.196Z,18.10
2023-01-17T03:07:25.649Z,22.17
2023-01-17T03:10:05.105Z,19.92
2023-01-17T03:12:41.657Z,22.20
2023-01-17T03:17:52.706Z,17.58
2023-01-17T03:20:23.905Z,18.95
2023-01-17T03:22:55.347Z,19.30
2023-01-17T03:25:26.321Z,20.40
2023-01-17T03:27:58.285Z,19.48
2023-01-17T03:30:31.739Z,17.20
2023-01-17T03:33:07.010Z,15.95
2023-01-17T03:35:38.022Z,18.10
2023-01-17T03:38:10.352Z,19.98
2023-01-17T03:40:43.432Z,18.65
2023-01-17T03:43:24.322Z,19.83
2023-01-17T03:46:03.622Z,20.85
2023-01-17T03:48:36.199Z,18.90
2023-01-17T03:51:07.470Z,18.25
2023-01-17T03:53:38.767Z,19.05
2023-01-17T03:56:10.385Z,16.42
2023-01-17T03:58:42.596Z,19.35
2023-01-17T04:01:15.108Z,19.33
2023-01-17T04:03:46.547Z,18.05
2023-01-17T04:06:17.672Z,18.85
2023-01-17T04:08:49.060Z,21.08
2023-01-17T04:11:23.376Z,19.33
2023-01-17T04:13:55.710Z,25.95
2023-01-17T04:16:31.270Z,22.80
2023-01-17T04:19:06.093Z,23.30
2023-01-17T04:21:39.117Z,19.67
2023-01-17T04:24:10.547Z,20.63
2023-01-17T04:26:41.921Z,21.80
2023-01-17T04:29:16.932Z,24.15
2023-01-17T04:32:17.161Z,21.88
2023-01-17T04:34:48.135Z,18.88
2023-01-17T04:37:19.273Z,22.30
2023-01-17T04:39:50.686Z,22.80
2023-01-17T04:42:21.697Z,27.73
2023-01-17T04:44:55.643Z,22.23
2023-01-17T04:50:17.036Z,19.38
2023-01-17T04:52:48.366Z,23.77
2023-01-17T04:55:19.512Z,20.90
2023-01-17T04:57:50.825Z,24.90
2023-01-17T05:00:43.062Z,23.20
2023-01-17T05:03:14.382Z,24.17
2023-01-17T05:06:05.870Z,25.60
2023-01-17T05:08:37.226Z,22.73
2023-01-17T05:11:09.827Z,23.58
2023-01-17T05:13:40.569Z,20.85
2023-01-17T05:16:21.816Z,24.38
2023-01-17T05:18:58.164Z,22.40
2023-01-17T05:21:30.633Z,24.38
2023-01-17T05:27:09.591Z,23.55
2023-01-17T05:29:41.248Z,23.38
2023-01-17T05:38:06.351Z,23.02
2023-01-17T05:40:40.666Z,21.85
2023-01-17T05:43:13.129Z,22.92
2023-01-17T05:45:46.360Z,26.58
2023-01-17T05:48:17.983Z,22.98
2023-01-17T05:50:51.417Z,22.70
2023-01-17T05:53:22.678Z,22.13
2023-01-17T05:55:56.099Z,21.23
2023-01-17T05:58:28.631Z,22.27
2023-01-17T06:01:02.556Z,21.60
2023-01-17T06:03:36.917Z,19.65
2023-01-17T06:06:08.456Z,20.13
2023-01-17T06:08:44.500Z,20.55
2023-01-17T06:11:16.041Z,18.65
2023-01-17T06:13:47.285Z,19.08
2023-01-17T06:16:18.445Z,16.98
2023-01-17T06:18:49.547Z,18.13
2023-01-17T06:21:21.978Z,19.27
2023-01-17T06:23:53.114Z,17.13
2023-01-17T06:26:27.531Z,24.27
2023-01-17T06:28:59.384Z,21.55
2023-01-17T06:31:30.650Z,23.95
2023-01-17T06:34:42.790Z,16.40
2023-01-17T06:37:15.092Z,22.08
2023-01-17T06:39:48.610Z,18.98
2023-01-17T06:42:40.664Z,18.92
2023-01-17T06:45:12.214Z,15.43
2023-01-17T06:47:44.347Z,18.58
2023-01-17T06:59:52.591Z,20.67
2023-01-17T07:02:23.781Z,21.65
2023-01-17T07:07:50.214Z,19.17
2023-01-17T07:10:21.526Z,17.20
2023-01-17T07:12:52.730Z,18.77
2023-01-17T07:15:31.145Z,16.23
2023-01-17T07:18:04.097Z,19.23
2023-01-17T07:20:56.946Z,17.65
2023-01-17T07:23:48.732Z,18.42
2023-01-17T07:26:20.137Z,17.95
2023-01-17T07:28:53.580Z,17.65
2023-01-17T07:34:36.943Z,18.50
2023-01-17T07:37:47.404Z,18.15
2023-01-17T07:40:20.559Z,17.40
2023-01-17T07:43:20.685Z,15.10
2023-01-17T07:46:18.350Z,16.20
2023-01-17T07:48:52.996Z,17.25
2023-01-17T07:51:24.277Z,17.48
2023-01-17T07:53:55.552Z,18.58
2023-01-17T07:56:28.707Z,17.17
2023-01-17T08:02:43.371Z,14.45
2023-01-17T08:09:42.239Z,18.75
2023-01-17T08:12:14.385Z,16.10
2023-01-17T08:14:46.603Z,17.92
2023-01-17T08:17:43.225Z,17.50
2023-01-17T08:20:51.907Z,17.80
2023-01-17T08:23:23.618Z,17.65
2023-01-17T08:25:54.660Z,15.18
2023-01-17T08:28:26.663Z,20.13
2023-01-17T08:31:17.873Z,15.10
2023-01-17T08:34:09.278Z,16.50
2023-01-17T08:36:40.399Z,17.88
2023-01-17T08:39:14.428Z,18.55
2023-01-17T08:41:45.610Z,18.52
2023-01-17T08:44:17.368Z,19.10
2023-01-17T08:46:48.627Z,16.30
2023-01-17T08:49:19.893Z,20.38
2023-01-17T08:51:59.633Z,15.60
2023-01-17T08:54:31.955Z,17.20
2023-01-17T08:57:05.418Z,18.02
2023-01-17T09:02:16.435Z,15.05
2023-01-17T09:04:51.543Z,14.75
2023-01-17T09:07:23.754Z,18.45
2023-01-17T09:10:18.696Z,19.08
2023-01-17T09:12:49.643Z,19.60
2023-01-17T09:15:26.718Z,21.42
2023-01-17T09:18:02.876Z,16.00
2023-01-17T09:20:33.947Z,18.00
2023-01-17T09:26:25.931Z,18.55
2023-01-17T09:29:19.359Z,17.50
2023-01-17T09:32:12.982Z,18.13
2023-01-17T09:34:44.351Z,17.40
2023-01-17T09:37:35.250Z,20.17
2023-01-17T09:40:07.555Z,16.38
2023-01-17T09:42:45.413Z,16.20
2023-01-17T09:45:40.890Z,20.30
2023-01-17T09:48:38.391Z,16.27
2023-01-17T09:51:47.601Z,16.40
2023-01-17T09:54:40.256Z,17.38
2023-01-17T10:00:34.317Z,16.10
2023-01-17T10:03:28.473Z,17.25
2023-01-17T10:06:27.130Z,20.50
2023-01-17T10:09:43.168Z,18.42
2023-01-17T10:12:17.527Z,17.30
2023-01-17T10:16:00.806Z,20.60
2023-01-17T10:21:45.963Z,17.40
2023-01-17T10:24:47.001Z,16.45
2023-01-17T10:27:32.307Z,21.08
2023-01-17T10:30:07.231Z,23.40
2023-01-17T10:32:47.059Z,18.80
2023-01-17T10:35:49.058Z,19.08
2023-01-17T10:38:21.662Z,20.20
2023-01-17T10:40:58.887Z,20.35
2023-01-17T10:43:42.021Z,21.48
2023-01-17T10:46:39.915Z,21.63
2023-01-17T10:49:26.656Z,21.00
2023-01-17T10:52:33.377Z,22.05
2023-01-17T10:55:52.147Z,20.45
2023-01-17T10:58:43.933Z,22.85
2023-01-17T11:01:36.939Z,26.77
2023-01-17T11:04:38.055Z,18.50
2023-01-17T11:07:35.800Z,19.92
2023-01-17T11:10:07.211Z,17.58
2023-01-17T11:12:47.200Z,20.98
2023-01-17T11:15:23.635Z,19.90
2023-01-17T11:18:18.767Z,18.08
2023-01-17T11:20:51.638Z,22.05
2023-01-17T11:23:28.687Z,28.10
2023-01-17T11:26:10.578Z,31.25
2023-01-17T11:28:43.330Z,36.65
2023-01-17T11:31:18.326Z,32.53
2023-01-17T11:33:59.274Z,31.73
2023-01-17T11:36:32.478Z,38.28
2023-01-17T11:39:06.284Z,35.05
2023-01-17T11:44:29.007Z,35.03
2023-01-17T11:47:37.911Z,31.30
2023-01-17T11:53:46.306Z,34.50
2023-01-17T11:56:24.721Z,39.55
2023-01-17T11:59:11.722Z,42.33
2023-01-17T12:02:17.210Z,39.22
2023-01-17T12:05:00.465Z,37.03
2023-01-17T12:07:58.506Z,39.22
2023-01-17T12:10:45.346Z,35.35
2023-01-17T12:17:33.531Z,31.95
2023-01-17T12:20:24.648Z,35.15
2023-01-17T12:23:55.200Z,36.05
2023-01-17T12:27:03.533Z,33.45
2023-01-17T12:30:05.847Z,32.83
2023-01-17T12:32:52.176Z,35.45
2023-01-17T12:36:07.367Z,34.90
2023-01-17T12:38:42.588Z,32.80
2023-01-17T12:45:26.541Z,34.20
2023-01-17T12:48:12.604Z,35.08
2023-01-17T12:51:06.357Z,33.67
2023-01-17T12:53:44.396Z,32.28
2023-01-17T12:56:37.168Z,35.50
2023-01-17T12:59:17.555Z,34.03
2023-01-17T13:01:59.546Z,33.35
2023-01-17T13:04:58.062Z,29.55
2023-01-17T13:07:52.012Z,36.38
2023-01-17T13:13:40.871Z,34.17
2023-01-17T13:16:25.025Z,31.83
2023-01-17T13:21:35.727Z,32.22
2023-01-17T13:24:48.350Z,31.65
2023-01-17T13:27:44.268Z,33.85
2023-01-17T13:30:27.842Z,38.22
2023-01-17T13:33:27.590Z,35.20
2023-01-17T13:36:18.727Z,37.10
2023-01-17T13:39:54.971Z,33.00
2023-01-17T13:42:31.488Z,37.08
2023-01-17T13:45:08.675Z,31.77
2023-01-17T13:48:27.271Z,31.50
2023-01-17T13:51:12.092Z,31.88
2023-01-17T13:53:48.176Z,41.40
2023-01-17T13:56:36.627Z,35.38
2023-01-17T13:59:28.292Z,33.42
2023-01-17T14:02:02.388Z,35.97
2023-01-17T14:05:24.871Z,32.55
2023-01-17T14:08:07.256Z,38.15
2023-01-17T14:10:44.062Z,36.60
2023-01-17T14:13:37.870Z,31.88
2023-01-17T14:16:34.041Z,37.83
2023-01-17T14:19:12.945Z,33.58
2023-01-17T14:21:45.639Z,32.05
2023-01-17T14:24:45.678Z,37.85
2023-01-17T14:30:24.973Z,37.55
2023-01-17T14:33:10.448Z,33.22
2023-01-17T14:35:52.194Z,40.88
2023-01-17T14:38:34.464Z,34.70
2023-01-17T14:41:15.801Z,36.45
2023-01-17T14:43:49.032Z,33.25
2023-01-17T14:46:36.725Z,32.55
2023-01-17T14:49:23.869Z,38.63
2023-01-17T14:52:08.139Z,37.90
2023-01-17T14:54:43.662Z,33.33
2023-01-17T14:57:33.766Z,37.75
2023-01-17T15:00:16.775Z,38.85
